Terminal Aerodrome Forecast
Issued by NWS Shreveport, LA

Home | Current Version | Previous Version | Text Only | Print | Product List | Glossary On
Versions: 1 2 3 4 5 6 7 8 9 10 11 12 13
000
FTUS44 KSHV 011100 RRA
TAFGGG
TAF
KGGG 011153Z 0112/0212 18006KT P6SM OVC005
      TEMPO 0112/0114 5SM BR BKN007 OVC015
     FM011400 17008KT P6SM OVC015
     FM011500 18008KT P6SM BKN025
     FM011700 18010KT P6SM SCT030 OVC040
     FM020000 16007KT P6SM FEW040
     FM020700 17009KT P6SM BKN010 OVC035=

USA.gov is the U.S. government's official web portal to all federal, state and local government web resources and services.